Time;durP1;ratioP1;P1;durP2;ratioP2;P2;SDS_P1;SDS_P2;PMS_P1;PMS_P2;Temp;Humidity;BMP_temperature;BMP_pressure;BME280_temperature;BME280_humidity;BME280_pressure;Samples;Min_cycle;Max_cycle;Signal;HPM_P1;HPM_P2
2022/05/03 00:01:18;;;;;;;;;;;15.40;77.80;;;;;;5110880;28;19957;-89
2022/05/03 00:03:58;;;;;;;;;;;15.40;79.40;;;;;;5109023;28;19945;-89
2022/05/03 00:06:40;;;;;;;;;;;15.40;79.40;;;;;;5110788;28;19942;-89
2022/05/03 00:09:07;;;;;;;;;;;15.30;78.80;;;;;;5137213;27;19954;-89
2022/05/03 00:11:36;;;;;;;;;;;15.30;79.10;;;;;;5151885;27;20330;-88
2022/05/03 00:14:11;;;;;;;;;;;15.30;80.00;;;;;;5145846;27;20063;-89
2022/05/03 00:16:37;;;;;;;;;;;15.20;80.70;;;;;;5151847;27;20358;-88
2022/05/03 00:19:05;;;;;;;;;;;15.20;81.10;;;;;;5151781;27;19983;-88
2022/05/03 00:21:34;;;;;;;;;;;15.10;81.00;;;;;;5151813;27;20399;-89
2022/05/03 00:24:00;;;;;;;;;;;15.10;80.30;;;;;;5150813;27;19962;-89
2022/05/03 00:26:28;;;;;;;;;;;15.20;80.40;;;;;;5151946;27;19946;-88
2022/05/03 00:28:53;;;;;;;;;;;15.10;79.40;;;;;;5150718;27;19924;-89
2022/05/03 00:31:19;;;;;;;;;;;15.10;79.50;;;;;;5151413;27;19996;-89
2022/05/03 00:33:45;;;;;;;;;;;15.00;80.60;;;;;;5150608;27;19919;-89
2022/05/03 00:36:11;;;;;;;;;;;15.00;81.70;;;;;;5151235;27;20306;-89
2022/05/03 00:38:37;;;;;;;;;;;15.10;81.70;;;;;;5151318;27;20330;-88
2022/05/03 00:41:03;;;;;;;;;;;15.10;80.90;;;;;;5151588;27;20043;-89
2022/05/03 00:43:29;;;;;;;;;;;15.10;78.30;;;;;;5150453;27;19951;-89
2022/05/03 00:45:57;;;;;;;;;;;15.20;76.50;;;;;;5151014;27;20383;-89
2022/05/03 00:48:23;;;;;;;;;;;15.30;75.70;;;;;;5136432;27;20404;-88
2022/05/03 00:50:48;;;;;;;;;;;15.30;75.00;;;;;;5130266;28;19995;-89
2022/05/03 00:53:14;;;;;;;;;;;15.30;77.40;;;;;;5136239;27;20385;-89
2022/05/03 00:55:39;;;;;;;;;;;15.40;78.40;;;;;;5151074;27;20402;-89
2022/05/03 00:58:08;;;;;;;;;;;15.40;78.60;;;;;;5151050;27;19964;-89
2022/05/03 01:00:35;;;;;;;;;;;15.30;78.40;;;;;;5130607;27;19937;-88
2022/05/03 01:03:09;;;;;;;;;;;15.30;78.90;;;;;;5129077;27;20042;-89
2022/05/03 01:05:47;;;;;;;;;;;15.20;78.40;;;;;;5116408;28;20032;-88
2022/05/03 01:08:21;;;;;;;;;;;15.20;78.60;;;;;;5121931;27;19939;-88
2022/05/03 01:10:53;;;;;;;;;;;15.10;79.80;;;;;;5136536;27;19942;-88
2022/05/03 01:13:24;;;;;;;;;;;15.10;79.60;;;;;;5120331;27;19930;-89
2022/05/03 01:15:56;;;;;;;;;;;15.00;79.50;;;;;;5121361;27;19916;-89
2022/05/03 01:18:29;;;;;;;;;;;14.90;81.00;;;;;;5116283;28;19921;-88
2022/05/03 01:21:05;;;;;;;;;;;14.90;81.90;;;;;;5126917;27;19951;-89
2022/05/03 01:23:50;;;;;;;;;;;14.90;81.10;;;;;;5135963;27;19988;-88
2022/05/03 01:26:34;;;;;;;;;;;14.80;80.70;;;;;;5136661;27;19928;-88
2022/05/03 01:28:59;;;;;;;;;;;14.70;81.20;;;;;;5134048;27;19954;-88
2022/05/03 01:31:27;;;;;;;;;;;14.70;81.30;;;;;;5132771;27;20320;-89
2022/05/03 01:33:57;;;;;;;;;;;14.60;80.90;;;;;;5136290;27;19935;-89
2022/05/03 01:36:43;;;;;;;;;;;14.60;81.10;;;;;;5136459;27;20448;-89
2022/05/03 01:39:18;;;;;;;;;;;14.50;81.20;;;;;;5134155;27;19958;-88
2022/05/03 01:42:02;;;;;;;;;;;14.40;81.70;;;;;;5136369;27;19907;-88
2022/05/03 01:44:44;;;;;;;;;;;14.30;82.20;;;;;;5131883;27;19953;-88
2022/05/03 01:47:16;;;;;;;;;;;14.20;81.30;;;;;;5115676;28;20034;-88
2022/05/03 01:50:20;;;;;;;;;;;14.10;80.90;;;;;;5129643;27;19911;-88
2022/05/03 01:52:47;;;;;;;;;;;14.00;80.70;;;;;;5135558;27;19977;-88
2022/05/03 01:55:15;;;;;;;;;;;14.00;79.60;;;;;;5136042;27;19926;-89
2022/05/03 01:57:47;;;;;;;;;;;14.00;79.90;;;;;;5136037;27;20306;-89
2022/05/03 02:00:13;;;;;;;;;;;14.00;78.70;;;;;;5132917;27;19912;-89
2022/05/03 02:03:01;;;;;;;;;;;14.00;78.30;;;;;;5136018;27;19944;-88
2022/05/03 02:05:45;;;;;;;;;;;14.00;78.10;;;;;;5135935;27;19958;-89
2022/05/03 02:08:13;;;;;;;;;;;14.00;77.40;;;;;;5135524;27;19934;-88
2022/05/03 02:10:42;;;;;;;;;;;14.00;77.90;;;;;;5135050;27;19968;-89
2022/05/03 02:13:30;;;;;;;;;;;14.00;78.20;;;;;;5115817;27;19965;-89
2022/05/03 02:16:05;;;;;;;;;;;13.90;78.40;;;;;;5120177;27;19951;-89
2022/05/03 02:18:34;;;;;;;;;;;13.90;78.80;;;;;;5100806;27;19984;-88
2022/05/03 02:20:59;;;;;;;;;;;13.90;78.70;;;;;;5134877;27;19929;-89
2022/05/03 02:23:40;;;;;;;;;;;13.80;78.10;;;;;;5135534;27;19924;-89
2022/05/03 02:26:11;;;;;;;;;;;13.70;79.20;;;;;;5135812;27;19977;-88
2022/05/03 02:28:40;;;;;;;;;;;13.80;79.60;;;;;;5116745;27;20397;-88
2022/05/03 02:31:08;;;;;;;;;;;13.70;79.40;;;;;;5134863;27;19969;-88
2022/05/03 02:33:52;;;;;;;;;;;13.70;80.00;;;;;;5135257;27;20027;-88
2022/05/03 02:36:22;;;;;;;;;;;13.60;79.90;;;;;;5135279;27;20301;-89
2022/05/03 02:39:00;;;;;;;;;;;13.50;80.70;;;;;;5115286;27;19940;-88
2022/05/03 02:41:26;;;;;;;;;;;13.50;81.30;;;;;;5135455;27;19923;-89
2022/05/03 02:43:52;;;;;;;;;;;13.40;80.40;;;;;;5135176;27;19944;-89
2022/05/03 02:46:18;;;;;;;;;;;13.40;80.20;;;;;;5135138;27;19947;-88
2022/05/03 02:48:51;;;;;;;;;;;13.40;80.50;;;;;;5134740;27;19955;-88
2022/05/03 02:51:18;;;;;;;;;;;13.30;80.70;;;;;;5114189;28;20263;-88
2022/05/03 02:53:46;;;;;;;;;;;13.30;81.60;;;;;;5114432;28;19927;-88
2022/05/03 02:56:25;;;;;;;;;;;13.20;81.80;;;;;;5114344;28;19951;-87
2022/05/03 02:58:50;;;;;;;;;;;13.20;80.90;;;;;;5120022;27;19922;-88
2022/05/03 03:01:47;;;;;;;;;;;13.20;81.60;;;;;;5134798;27;20321;-88
2022/05/03 03:04:24;;;;;;;;;;;13.00;81.80;;;;;;5134495;27;19933;-88
2022/05/03 03:06:53;;;;;;;;;;;13.00;81.40;;;;;;5134756;27;19933;-89
2022/05/03 03:09:25;;;;;;;;;;;12.90;81.90;;;;;;5134422;27;19962;-88
2022/05/03 03:12:04;;;;;;;;;;;12.90;82.70;;;;;;5134542;27;19918;-88
2022/05/03 03:14:35;;;;;;;;;;;12.90;83.30;;;;;;5134594;27;19925;-88
2022/05/03 03:17:01;;;;;;;;;;;12.80;83.00;;;;;;5134754;27;19931;-89
2022/05/03 03:19:45;;;;;;;;;;;12.80;83.20;;;;;;5134252;27;20251;-88
2022/05/03 03:22:12;;;;;;;;;;;12.70;83.20;;;;;;5134316;27;19919;-88
2022/05/03 03:24:38;;;;;;;;;;;12.70;83.80;;;;;;5134702;27;19924;-88
2022/05/03 03:27:05;;;;;;;;;;;12.60;83.60;;;;;;5134343;27;19978;-88
2022/05/03 03:29:31;;;;;;;;;;;12.60;84.20;;;;;;5134084;27;19928;-88
2022/05/03 03:31:59;;;;;;;;;;;12.60;84.30;;;;;;5134221;27;20195;-88
2022/05/03 03:34:25;;;;;;;;;;;12.60;84.40;;;;;;5134308;27;19949;-88
2022/05/03 03:36:52;;;;;;;;;;;12.60;84.80;;;;;;5134304;27;19941;-88
2022/05/03 03:39:18;;;;;;;;;;;12.50;84.30;;;;;;5134036;27;19978;-88
2022/05/03 03:41:47;;;;;;;;;;;12.40;84.50;;;;;;5134251;27;19980;-89
2022/05/03 03:44:13;;;;;;;;;;;12.40;85.40;;;;;;5134172;27;20368;-88
2022/05/03 03:46:39;;;;;;;;;;;12.40;85.50;;;;;;5134159;27;20010;-88
2022/05/03 03:49:04;;;;;;;;;;;12.40;85.60;;;;;;5133824;27;20405;-88
2022/05/03 03:51:30;;;;;;;;;;;12.30;85.70;;;;;;5134098;28;19964;-88
2022/05/03 03:53:56;;;;;;;;;;;12.40;85.70;;;;;;5134021;28;19936;-88
2022/05/03 03:56:22;;;;;;;;;;;12.40;85.40;;;;;;5134018;28;19946;-89
2022/05/03 03:58:47;;;;;;;;;;;12.30;85.00;;;;;;5115251;28;19961;-88
2022/05/03 04:01:13;;;;;;;;;;;12.30;85.00;;;;;;5133654;28;19921;-87
2022/05/03 04:03:39;;;;;;;;;;;12.20;84.20;;;;;;5133992;28;19921;-88
2022/05/03 04:06:05;;;;;;;;;;;12.10;85.60;;;;;;5133974;28;20302;-88
2022/05/03 04:08:31;;;;;;;;;;;12.00;86.30;;;;;;5133588;28;19925;-88
2022/05/03 04:10:56;;;;;;;;;;;12.00;86.40;;;;;;5133838;28;20410;-88
2022/05/03 04:13:22;;;;;;;;;;;11.90;86.30;;;;;;5115339;28;19967;-88
2022/05/03 04:15:49;;;;;;;;;;;11.90;86.80;;;;;;5133839;28;19951;-88
2022/05/03 04:18:14;;;;;;;;;;;11.90;86.80;;;;;;5133874;28;19923;-88
2022/05/03 04:20:40;;;;;;;;;;;11.80;86.00;;;;;;5133889;28;19977;-88
2022/05/03 04:23:06;;;;;;;;;;;11.80;85.70;;;;;;5133730;28;19920;-88
2022/05/03 04:25:32;;;;;;;;;;;11.90;86.20;;;;;;5134074;28;19976;-88
2022/05/03 04:27:58;;;;;;;;;;;11.80;86.60;;;;;;5133270;28;19930;-88
2022/05/03 04:30:23;;;;;;;;;;;11.70;86.50;;;;;;5133314;28;19975;-87
2022/05/03 04:32:49;;;;;;;;;;;11.60;86.80;;;;;;5133528;28;20272;-88
2022/05/03 04:35:14;;;;;;;;;;;11.60;86.40;;;;;;5133615;28;20401;-88
2022/05/03 04:37:40;;;;;;;;;;;11.60;87.30;;;;;;5133570;27;19915;-88
2022/05/03 04:40:06;;;;;;;;;;;11.70;86.90;;;;;;5137597;27;19925;-88
2022/05/03 04:42:31;;;;;;;;;;;11.70;86.80;;;;;;5137494;27;19941;-88
2022/05/03 04:44:57;;;;;;;;;;;11.80;86.30;;;;;;5137509;27;19930;-88
2022/05/03 04:47:22;;;;;;;;;;;11.90;86.00;;;;;;5137123;27;19961;-88
2022/05/03 04:49:48;;;;;;;;;;;12.10;85.40;;;;;;5137399;27;19926;-88
2022/05/03 04:52:14;;;;;;;;;;;12.10;84.80;;;;;;5137018;27;19989;-88
2022/05/03 04:54:39;;;;;;;;;;;12.00;84.30;;;;;;5137296;27;20028;-88
2022/05/03 04:57:06;;;;;;;;;;;12.00;84.70;;;;;;5140584;27;19945;-87
2022/05/03 04:59:31;;;;;;;;;;;12.10;85.10;;;;;;5138226;27;19935;-88
2022/05/03 05:01:57;;;;;;;;;;;12.10;85.10;;;;;;5146726;27;20429;-87
2022/05/03 05:10:24;;;;;;;;;;;12.10;85.00;;;;;;5095939;27;20339;-88
2022/05/03 05:15:38;;;;;;;;;;;12.20;84.70;;;;;;5110680;27;19952;-87
2022/05/03 05:18:04;;;;;;;;;;;12.30;84.20;;;;;;5110745;28;20030;-87
2022/05/03 05:20:30;;;;;;;;;;;12.20;84.60;;;;;;5110219;28;19912;-87
2022/05/03 05:25:21;;;;;;;;;;;12.30;84.50;;;;;;5110952;27;19919;-87
2022/05/03 05:27:47;;;;;;;;;;;12.40;84.80;;;;;;5102660;28;19958;-87
2022/05/03 05:30:12;;;;;;;;;;;12.50;84.50;;;;;;5082620;28;19955;-87
2022/05/03 05:32:38;;;;;;;;;;;12.60;84.10;;;;;;5103068;28;19954;-88
2022/05/03 05:35:04;;;;;;;;;;;12.70;82.90;;;;;;5086895;28;20000;-87
2022/05/03 05:49:17;;;;;;;;;;;13.10;81.40;;;;;;5098365;27;2102381;-87
2022/05/03 05:51:43;;;;;;;;;;;13.60;80.40;;;;;;5166334;27;20003;-88
2022/05/03 05:54:09;;;;;;;;;;;13.70;79.70;;;;;;5164609;27;20382;-89
2022/05/03 05:56:34;;;;;;;;;;;13.80;79.40;;;;;;5169705;27;20365;-89
2022/05/03 05:59:00;;;;;;;;;;;13.90;79.40;;;;;;5166241;27;20440;-89
2022/05/03 06:01:26;;;;;;;;;;;14.10;79.20;;;;;;5166658;27;20548;-88
2022/05/03 06:03:52;;;;;;;;;;;14.20;79.10;;;;;;5159788;27;19975;-89
2022/05/03 06:06:17;;;;;;;;;;;14.20;78.60;;;;;;5161557;27;19956;-89
2022/05/03 06:08:43;;;;;;;;;;;14.30;78.00;;;;;;5134421;27;19975;-89
2022/05/03 06:11:09;;;;;;;;;;;14.50;77.10;;;;;;5145142;27;20463;-89
2022/05/03 06:13:35;;;;;;;;;;;14.70;76.70;;;;;;5140443;27;19957;-89
2022/05/03 06:16:10;;;;;;;;;;;14.90;76.20;;;;;;5125398;27;20383;-89
2022/05/03 06:18:39;;;;;;;;;;;15.00;76.60;;;;;;5134908;27;20196;-90
2022/05/03 06:21:07;;;;;;;;;;;15.20;75.90;;;;;;5135441;27;19943;-89
2022/05/03 06:23:33;;;;;;;;;;;15.30;75.70;;;;;;5136105;27;19942;-90
2022/05/03 06:25:59;;;;;;;;;;;15.40;75.40;;;;;;5142628;27;19983;-89
2022/05/03 06:28:25;;;;;;;;;;;15.60;74.90;;;;;;5133918;27;20028;-89
2022/05/03 06:30:50;;;;;;;;;;;15.60;74.90;;;;;;5148346;27;19975;-89
2022/05/03 06:33:16;;;;;;;;;;;15.80;74.50;;;;;;5139440;27;20419;-89
2022/05/03 06:35:41;;;;;;;;;;;15.80;74.20;;;;;;5146134;27;20012;-90
2022/05/03 06:38:33;;;;;;;;;;;16.00;73.90;;;;;;5103854;27;19957;-89
2022/05/03 06:40:59;;;;;;;;;;;16.20;72.50;;;;;;5104530;28;19927;-89
2022/05/03 06:43:24;;;;;;;;;;;16.30;70.90;;;;;;5101606;28;20024;-89
2022/05/03 06:45:52;;;;;;;;;;;16.30;71.80;;;;;;5096802;28;19936;-89
2022/05/03 06:48:18;;;;;;;;;;;16.30;72.20;;;;;;5082202;28;20343;-89
2022/05/03 06:50:43;;;;;;;;;;;16.30;72.10;;;;;;5087150;28;20032;-90
2022/05/03 06:53:09;;;;;;;;;;;16.30;72.10;;;;;;5098892;28;20050;-89
2022/05/03 06:55:34;;;;;;;;;;;16.40;70.80;;;;;;5114183;28;20346;-89
2022/05/03 06:58:00;;;;;;;;;;;16.60;70.60;;;;;;5108068;28;20434;-89
2022/05/03 07:00:25;;;;;;;;;;;16.70;70.00;;;;;;5083308;28;19978;-89
2022/05/03 07:02:51;;;;;;;;;;;16.80;70.10;;;;;;5106248;28;19912;-90
2022/05/03 07:05:16;;;;;;;;;;;17.00;70.10;;;;;;5111790;28;19961;-90
2022/05/03 07:07:42;;;;;;;;;;;17.10;69.80;;;;;;5080981;28;19956;-89
2022/05/03 07:10:08;;;;;;;;;;;17.30;67.50;;;;;;5098052;28;20367;-90
2022/05/03 07:12:33;;;;;;;;;;;17.40;67.10;;;;;;5099178;28;20347;-89
2022/05/03 07:14:59;;;;;;;;;;;17.60;66.80;;;;;;5094624;28;20015;-89
2022/05/03 07:24:14;;;;;;;;;;;17.90;65.70;;;;;;4990666;28;19939;-89
2022/05/03 07:26:40;;;;;;;;;;;18.10;64.10;;;;;;4994738;28;19952;-89
2022/05/03 07:29:07;;;;;;;;;;;18.00;64.60;;;;;;5021801;28;19952;-89
2022/05/03 07:31:32;;;;;;;;;;;18.00;65.00;;;;;;4987687;28;20284;-89
2022/05/03 07:33:58;;;;;;;;;;;17.90;64.90;;;;;;5024145;28;19946;-89
2022/05/03 07:36:24;;;;;;;;;;;17.90;65.20;;;;;;4988062;28;19933;-90
2022/05/03 07:38:49;;;;;;;;;;;18.00;65.50;;;;;;4987337;28;19918;-89
2022/05/03 07:41:15;;;;;;;;;;;18.10;65.70;;;;;;4991827;28;19965;-90
2022/05/03 07:43:41;;;;;;;;;;;18.30;64.30;;;;;;4989577;28;20425;-89
2022/05/03 07:46:07;;;;;;;;;;;18.30;59.80;;;;;;4990685;28;19950;-90
2022/05/03 07:48:33;;;;;;;;;;;18.50;58.30;;;;;;4992205;28;20352;-89
2022/05/03 07:50:58;;;;;;;;;;;18.60;58.30;;;;;;4978434;28;19922;-90
2022/05/03 07:53:24;;;;;;;;;;;18.80;59.20;;;;;;4987085;28;20371;-90
2022/05/03 07:55:50;;;;;;;;;;;18.80;59.90;;;;;;5003463;28;19914;-90
2022/05/03 07:58:16;;;;;;;;;;;18.90;58.40;;;;;;4976940;28;20347;-90
2022/05/03 08:00:41;;;;;;;;;;;19.10;58.20;;;;;;4988983;28;19925;-90
2022/05/03 08:04:14;;;;;;;;;;;19.20;58.80;;;;;;5072462;27;2067519;-89
2022/05/03 08:06:39;;;;;;;;;;;19.30;55.70;;;;;;5120352;28;19924;-89
2022/05/03 08:09:05;;;;;;;;;;;19.10;56.10;;;;;;5121440;28;19960;-89
2022/05/03 08:11:31;;;;;;;;;;;19.10;57.50;;;;;;5113201;28;20295;-89
2022/05/03 08:13:56;;;;;;;;;;;19.20;55.60;;;;;;5107104;28;19920;-90
2022/05/03 08:16:23;;;;;;;;;;;19.20;56.80;;;;;;5119070;28;19946;-90
2022/05/03 08:18:49;;;;;;;;;;;19.20;55.30;;;;;;5096417;28;20022;-89
2022/05/03 08:21:15;;;;;;;;;;;19.40;56.30;;;;;;5110086;28;20400;-90
2022/05/03 08:23:41;;;;;;;;;;;19.60;56.10;;;;;;5104536;28;19952;-90
2022/05/03 08:26:06;;;;;;;;;;;19.60;54.00;;;;;;5095568;28;20393;-90
2022/05/03 08:28:32;;;;;;;;;;;19.80;54.30;;;;;;5105261;28;20423;-90
2022/05/03 08:30:58;;;;;;;;;;;19.90;54.60;;;;;;5110303;28;19973;-90
2022/05/03 08:33:23;;;;;;;;;;;20.00;55.60;;;;;;5083285;28;19962;-90
2022/05/03 08:35:49;;;;;;;;;;;20.10;54.00;;;;;;5104957;28;19919;-90
2022/05/03 08:43:43;;;;;;;;;;;20.30;57.60;;;;;;5104487;28;20053;-90
2022/05/03 08:46:09;;;;;;;;;;;20.30;55.50;;;;;;5107842;28;20406;-90
2022/05/03 08:50:19;;;;;;;;;;;20.40;54.90;;;;;;5109688;27;20489;-90
2022/05/03 08:53:19;;;;;;;;;;;20.40;51.80;;;;;;5105459;27;20289;-89
2022/05/03 08:55:45;;;;;;;;;;;20.30;52.90;;;;;;5085865;28;19912;-90
2022/05/03 08:58:14;;;;;;;;;;;20.40;55.00;;;;;;5100377;28;20315;-89
2022/05/03 09:00:42;;;;;;;;;;;20.50;52.30;;;;;;5097264;28;19955;-89
2022/05/03 09:03:07;;;;;;;;;;;20.50;51.00;;;;;;5092032;28;19912;-90
2022/05/03 09:05:33;;;;;;;;;;;20.70;52.60;;;;;;5095384;28;20000;-90
2022/05/03 09:07:59;;;;;;;;;;;20.80;51.40;;;;;;5090508;28;20333;-90
2022/05/03 09:10:32;;;;;;;;;;;20.80;52.00;;;;;;5090111;28;19991;-90
2022/05/03 09:13:18;;;;;;;;;;;21.00;49.00;;;;;;5084187;28;19939;-90
2022/05/03 09:15:50;;;;;;;;;;;21.10;49.20;;;;;;5082099;28;20314;-90
2022/05/03 09:18:29;;;;;;;;;;;21.20;51.90;;;;;;5091598;28;19912;-90
2022/05/03 09:23:53;;;;;;;;;;;21.40;50.80;;;;;;5098344;28;19923;-89
2022/05/03 09:26:22;;;;;;;;;;;21.50;47.90;;;;;;5075617;28;19961;-90
2022/05/03 09:29:03;;;;;;;;;;;21.70;51.50;;;;;;5086331;28;19919;-90
2022/05/03 09:31:30;;;;;;;;;;;21.80;51.30;;;;;;5086682;28;19916;-90
2022/05/03 09:33:56;;;;;;;;;;;21.80;50.60;;;;;;5082194;28;20198;-90
2022/05/03 09:37:00;;;;;;;;;;;21.90;49.70;;;;;;5112933;27;19915;-90
2022/05/03 09:39:27;;;;;;;;;;;22.00;52.10;;;;;;5109443;28;19973;-89
2022/05/03 09:42:12;;;;;;;;;;;22.10;49.50;;;;;;5107975;28;19912;-89
2022/05/03 09:44:49;;;;;;;;;;;21.80;47.50;;;;;;5103248;28;19912;-89
2022/05/03 09:47:15;;;;;;;;;;;21.70;48.30;;;;;;5110642;28;19908;-89
2022/05/03 09:49:41;;;;;;;;;;;21.70;48.80;;;;;;5098114;28;19966;-89
2022/05/03 09:52:09;;;;;;;;;;;21.80;50.80;;;;;;5092125;28;19957;-89
2022/05/03 09:54:50;;;;;;;;;;;21.80;46.00;;;;;;5110393;28;19912;-89
2022/05/03 09:57:21;;;;;;;;;;;21.80;46.00;;;;;;5107946;28;20384;-89
2022/05/03 09:59:47;;;;;;;;;;;22.00;49.50;;;;;;5102072;28;19938;-90
2022/05/03 10:02:13;;;;;;;;;;;22.10;46.30;;;;;;5105153;28;20374;-90
2022/05/03 10:04:39;;;;;;;;;;;22.20;46.10;;;;;;5109938;28;19926;-90
2022/05/03 10:07:05;;;;;;;;;;;22.30;46.10;;;;;;5103489;28;20018;-90
2022/05/03 10:09:32;;;;;;;;;;;22.40;46.10;;;;;;5114380;27;19912;-90
2022/05/03 10:11:58;;;;;;;;;;;22.60;48.30;;;;;;5137125;27;19930;-90
2022/05/03 10:14:24;;;;;;;;;;;22.70;45.00;;;;;;5125135;28;20378;-89
2022/05/03 10:22:18;;;;;;;;;;;22.80;46.10;;;;;;5130048;28;19972;-89
2022/05/03 10:24:56;;;;;;;;;;;22.80;47.20;;;;;;5130243;28;20357;-89
2022/05/03 10:27:22;;;;;;;;;;;22.40;42.60;;;;;;5130594;28;19976;-89
2022/05/03 10:30:20;;;;;;;;;;;22.20;44.10;;;;;;5129592;28;20002;-89
2022/05/03 10:33:04;;;;;;;;;;;22.30;47.00;;;;;;5085332;28;20390;-89
2022/05/03 10:35:34;;;;;;;;;;;22.50;45.40;;;;;;5109660;28;20361;-90
2022/05/03 10:37:59;;;;;;;;;;;22.80;48.30;;;;;;5109900;28;19916;-90
2022/05/03 10:40:39;;;;;;;;;;;23.00;46.10;;;;;;5121102;28;19928;-90
2022/05/03 10:43:10;;;;;;;;;;;23.20;44.50;;;;;;5130306;28;19911;-90
2022/05/03 10:45:55;;;;;;;;;;;23.40;45.40;;;;;;5117981;28;19912;-90
2022/05/03 10:48:28;;;;;;;;;;;23.60;39.30;;;;;;5095935;28;19946;-90
2022/05/03 10:50:55;;;;;;;;;;;23.80;43.10;;;;;;5114819;28;19947;-90
2022/05/03 10:53:23;;;;;;;;;;;23.80;40.50;;;;;;5116678;28;19981;-90
2022/05/03 10:56:05;;;;;;;;;;;23.80;41.70;;;;;;5097359;28;19912;-90
2022/05/03 10:58:32;;;;;;;;;;;23.90;42.40;;;;;;5098141;28;19969;-90
2022/05/03 11:01:01;;;;;;;;;;;24.10;43.80;;;;;;5115353;28;19907;-90
2022/05/03 11:03:26;;;;;;;;;;;24.20;40.80;;;;;;5116061;28;19965;-90
2022/05/03 11:06:10;;;;;;;;;;;24.30;39.10;;;;;;5114476;28;19912;-90
2022/05/03 11:08:36;;;;;;;;;;;24.40;39.00;;;;;;5116100;28;19911;-89
2022/05/03 11:11:02;;;;;;;;;;;24.20;38.30;;;;;;5115791;28;20000;-88
2022/05/03 11:13:39;;;;;;;;;;;24.00;38.10;;;;;;5116097;28;19912;-90
2022/05/03 11:16:25;;;;;;;;;;;24.00;41.00;;;;;;5114249;28;19918;-90
2022/05/03 11:18:51;;;;;;;;;;;24.00;39.90;;;;;;5131403;27;19919;-90
2022/05/03 11:21:17;;;;;;;;;;;23.90;40.20;;;;;;5114820;28;19959;-90
2022/05/03 11:24:01;;;;;;;;;;;23.90;40.30;;;;;;5115659;28;19950;-90
2022/05/03 11:26:26;;;;;;;;;;;23.80;39.10;;;;;;5115844;28;19915;-90
2022/05/03 11:28:52;;;;;;;;;;;24.20;40.90;;;;;;5120409;27;19908;-91
2022/05/03 11:31:22;;;;;;;;;;;24.50;39.20;;;;;;5110766;28;19920;-91
2022/05/03 11:33:51;;;;;;;;;;;24.90;37.90;;;;;;5122164;27;19919;-91
2022/05/03 11:36:18;;;;;;;;;;;25.20;36.90;;;;;;5091932;27;19924;-91
2022/05/03 11:38:46;;;;;;;;;;;25.60;37.30;;;;;;5128378;27;20037;-91
2022/05/03 11:41:12;;;;;;;;;;;25.90;35.70;;;;;;5117349;27;19919;-91
2022/05/03 11:43:38;;;;;;;;;;;26.30;36.60;;;;;;5118261;27;20369;-91
2022/05/03 11:46:03;;;;;;;;;;;26.60;35.60;;;;;;5101385;28;19918;-91
2022/05/03 11:48:29;;;;;;;;;;;26.90;36.00;;;;;;5105110;27;20038;-91
2022/05/03 11:56:23;;;;;;;;;;;26.70;33.00;;;;;;5117443;27;20433;-90
2022/05/03 11:58:50;;;;;;;;;;;27.00;32.40;;;;;;5123157;27;19938;-90
2022/05/03 12:01:16;;;;;;;;;;;27.20;32.10;;;;;;5116917;27;19957;-90
2022/05/03 12:03:48;;;;;;;;;;;27.70;31.70;;;;;;5116209;27;19998;-89
2022/05/03 12:06:15;;;;;;;;;;;28.10;32.10;;;;;;5111919;27;19912;-91
2022/05/03 12:08:40;;;;;;;;;;;28.40;34.00;;;;;;5106861;27;20377;-91
2022/05/03 12:11:15;;;;;;;;;;;28.70;31.80;;;;;;5107070;27;19911;-92
2022/05/03 12:13:41;;;;;;;;;;;29.10;31.40;;;;;;5092248;28;19943;-92
2022/05/03 12:16:08;;;;;;;;;;;29.60;26.60;;;;;;5106468;28;19967;-91
2022/05/03 12:18:37;;;;;;;;;;;30.00;26.50;;;;;;5107915;27;19912;-91
2022/05/03 12:21:05;;;;;;;;;;;30.00;27.90;;;;;;5115301;27;19950;-91
2022/05/03 12:23:34;;;;;;;;;;;29.10;29.50;;;;;;5108228;27;19918;-90
2022/05/03 12:26:13;;;;;;;;;;;28.30;31.00;;;;;;5108873;27;20010;-91
2022/05/03 12:28:42;;;;;;;;;;;28.00;31.40;;;;;;5112294;27;19965;-90
2022/05/03 12:31:08;;;;;;;;;;;27.70;30.80;;;;;;5093208;28;19928;-90
2022/05/03 12:33:39;;;;;;;;;;;27.20;31.80;;;;;;5104515;28;19919;-92
2022/05/03 12:36:05;;;;;;;;;;;26.90;32.30;;;;;;5109260;27;19927;-91
2022/05/03 12:38:31;;;;;;;;;;;27.20;31.60;;;;;;5120765;27;19988;-92
2022/05/03 12:41:00;;;;;;;;;;;27.80;31.70;;;;;;5106414;27;19912;-91
2022/05/03 12:43:29;;;;;;;;;;;28.80;32.40;;;;;;5106799;27;19911;-91
2022/05/03 12:45:58;;;;;;;;;;;29.20;31.60;;;;;;5099996;28;20417;-91
2022/05/03 12:48:24;;;;;;;;;;;29.20;31.60;;;;;;5111492;27;19919;-93
2022/05/03 12:50:50;;;;;;;;;;;28.80;32.50;;;;;;5104554;27;19920;-91
2022/05/03 12:53:52;;;;;;;;;;;29.00;30.80;;;;;;5106312;27;20257;-92
2022/05/03 12:59:02;;;;;;;;;;;29.70;28.50;;;;;;5085324;28;19927;-91
2022/05/03 13:03:18;;;;;;;;;;;29.10;28.80;;;;;;5090172;27;2040684;-92
2022/05/03 13:05:44;;;;;;;;;;;28.90;29.70;;;;;;5148999;27;19912;-89
2022/05/03 13:08:10;;;;;;;;;;;29.40;28.80;;;;;;5150877;27;19934;-89
2022/05/03 13:10:37;;;;;;;;;;;29.70;28.60;;;;;;5148003;27;19942;-89
2022/05/03 13:13:03;;;;;;;;;;;30.10;27.80;;;;;;5147554;27;19964;-89
2022/05/03 13:15:28;;;;;;;;;;;30.30;27.30;;;;;;5149404;27;19998;-88
2022/05/03 13:17:54;;;;;;;;;;;30.70;26.80;;;;;;5158396;27;20002;-89
2022/05/03 13:21:54;;;;;;;;;;;30.40;27.00;;;;;;5111518;27;19936;-88
2022/05/03 13:24:20;;;;;;;;;;;31.40;25.60;;;;;;5093940;28;19958;-89
2022/05/03 13:30:08;;;;;;;;;;;31.90;25.00;;;;;;5130157;27;19923;-88
2022/05/03 13:32:33;;;;;;;;;;;30.60;25.70;;;;;;5088324;28;19920;-89
2022/05/03 13:34:59;;;;;;;;;;;30.70;23.90;;;;;;5108600;28;20002;-89
2022/05/03 13:40:33;;;;;;;;;;;32.40;24.90;;;;;;5048517;28;19921;-90
2022/05/03 13:43:00;;;;;;;;;;;32.80;25.20;;;;;;5102648;28;19973;-90
2022/05/03 13:45:26;;;;;;;;;;;33.00;22.70;;;;;;5102256;28;20374;-90
2022/05/03 13:47:52;;;;;;;;;;;32.80;23.20;;;;;;5106073;28;19912;-89
2022/05/03 13:50:17;;;;;;;;;;;32.90;22.90;;;;;;5102710;28;19966;-89
2022/05/03 13:52:43;;;;;;;;;;;33.10;24.40;;;;;;5101616;28;20393;-89
2022/05/03 13:55:08;;;;;;;;;;;32.90;24.50;;;;;;5101122;28;19919;-90
2022/05/03 13:57:34;;;;;;;;;;;33.30;23.60;;;;;;5102203;28;19931;-89
2022/05/03 14:01:50;;;;;;;;;;;32.70;23.80;;;;;;5106848;27;19916;-90
2022/05/03 14:04:15;;;;;;;;;;;31.40;24.80;;;;;;5087692;28;19922;-90
2022/05/03 14:06:41;;;;;;;;;;;31.70;24.70;;;;;;5089195;28;20377;-90
2022/05/03 14:09:06;;;;;;;;;;;32.30;25.90;;;;;;5091175;28;19912;-90
2022/05/03 14:11:32;;;;;;;;;;;32.20;24.30;;;;;;5085887;28;20338;-90
2022/05/03 14:13:58;;;;;;;;;;;32.20;23.40;;;;;;5087831;28;19930;-90
2022/05/03 14:16:24;;;;;;;;;;;31.60;24.00;;;;;;5095567;28;19913;-90
2022/05/03 14:18:49;;;;;;;;;;;31.30;23.80;;;;;;5088088;28;20410;-90
2022/05/03 14:21:15;;;;;;;;;;;32.40;23.50;;;;;;5082471;28;20362;-90
2022/05/03 14:23:40;;;;;;;;;;;33.10;23.60;;;;;;5088980;28;20362;-91
2022/05/03 14:26:11;;;;;;;;;;;33.80;22.30;;;;;;5092871;28;19920;-90
2022/05/03 14:28:37;;;;;;;;;;;33.00;23.20;;;;;;5093940;28;20370;-90
2022/05/03 14:31:02;;;;;;;;;;;32.90;23.40;;;;;;5098954;28;20278;-91
2022/05/03 14:33:28;;;;;;;;;;;33.10;23.10;;;;;;5094880;28;19928;-90
2022/05/03 14:35:54;;;;;;;;;;;33.30;23.00;;;;;;5086533;28;20275;-90
2022/05/03 14:38:19;;;;;;;;;;;33.40;22.70;;;;;;5085290;28;20189;-90
2022/05/03 14:40:45;;;;;;;;;;;33.70;22.00;;;;;;5086373;28;19973;-90
2022/05/03 14:43:11;;;;;;;;;;;33.20;21.40;;;;;;5088548;28;19916;-90
2022/05/03 14:45:37;;;;;;;;;;;32.20;22.40;;;;;;5098863;28;19931;-90
2022/05/03 14:48:03;;;;;;;;;;;31.10;23.00;;;;;;5083554;28;19923;-90
2022/05/03 14:50:28;;;;;;;;;;;31.00;25.60;;;;;;5100960;28;19908;-90
2022/05/03 14:52:55;;;;;;;;;;;31.90;24.00;;;;;;5076152;28;20397;-90
2022/05/03 14:55:20;;;;;;;;;;;32.20;22.90;;;;;;5078044;28;19956;-90
2022/05/03 15:03:14;;;;;;;;;;;32.10;22.30;;;;;;5080821;28;19934;-90
2022/05/03 15:05:40;;;;;;;;;;;32.30;21.90;;;;;;5088925;28;20336;-91
2022/05/03 15:08:06;;;;;;;;;;;33.00;21.50;;;;;;5096169;28;20362;-90
2022/05/03 15:10:32;;;;;;;;;;;32.20;20.80;;;;;;5083609;28;20003;-90
2022/05/03 15:12:59;;;;;;;;;;;32.40;21.50;;;;;;5071780;28;19999;-90
2022/05/03 15:15:26;;;;;;;;;;;32.60;22.00;;;;;;5071092;28;20057;-90
2022/05/03 15:17:52;;;;;;;;;;;33.00;22.20;;;;;;5068284;28;19919;-90
2022/05/03 15:20:18;;;;;;;;;;;33.20;21.80;;;;;;5071748;28;19928;-90
2022/05/03 15:25:28;;;;;;;;;;;33.10;22.50;;;;;;5067748;28;20167;-91
2022/05/03 15:27:54;;;;;;;;;;;33.30;21.70;;;;;;5074033;28;19913;-90
2022/05/03 15:30:19;;;;;;;;;;;34.00;20.90;;;;;;5073306;28;20369;-90
2022/05/03 15:32:45;;;;;;;;;;;33.60;19.60;;;;;;5074256;28;19913;-90
2022/05/03 15:35:11;;;;;;;;;;;33.30;21.00;;;;;;5076449;28;19921;-90
2022/05/03 15:37:36;;;;;;;;;;;32.70;20.50;;;;;;5064406;28;19967;-89
2022/05/03 15:40:04;;;;;;;;;;;31.60;22.40;;;;;;5065575;28;19921;-90